Saint Augustine, FL

8:21 PM EST on March 05, 2015 (GMT -0500)
Mayport Naval Station / Adm. David L. McDonald Field | Change Station
CLOSE
Current Station
Airport
Location: Mayport NS,
Elevation: 16 ft
Nearby Weather Stations

Elev 16 ft 30.39 °N, 81.42 °W | Updated 29 minutes ago

Partly Cloudy
Partly Cloudy
77 °F
Feels Like 77 °F
N
10
Wind Variable Wind from SW

Today
High -- | Low -- °F
--% Chance of Precip.
Yesterday
High -- | Low -- °F
Precip. -- in
6:46 AM 6:26 PM
Full, 100% visible
Pressure 30.06 in
Visibility 10.0 miles
Clouds Few 4000 ft
Scattered Clouds 8000 ft
Overcast 25000 ft
Dew Point 65 °F
Humidity 66%
Rainfall 0.00 in
Snow Depth Not available.
UV 0 out of 12
Pollen 10.50 out of 12
Air Quality Not available.
Flu Activity Not available.
METAR KNRB 060052Z 22009KT 10SM FEW040 SCT080 OVC250 25/18 A3006 RMK AO2 SLP179 T02500183 $

More Conditions Fewer Conditions

Pressure 30.06 in
Visibility 10.0 miles
Clouds Few 4000 ft
Scattered Clouds 8000 ft
Overcast 25000 ft
Dew Point 65 °F
Humidity 66%
Rainfall 0.00 in
Snow Depth Not available.
UV 0 out of 12
Pollen 10.50 out of 12
Air Quality Not available.
Flu Activity Not available.
METAR KNRB 060052Z 22009KT 10SM FEW040 SCT080 OVC250 25/18 A3006 RMK AO2 SLP179 T02500183 $

More Conditions Fewer Conditions

10-Day Weather Forecast

Almanac

Astronomy

Mar. 05, 2015 Rise Set
Actual Time
Civil Twilight
Nautical Twilight
Astronomical Twilight
Moon
Length of Visible Light
Length of Day
Tomorrow will be .
, % of the Moon is Illuminated

Today's Extremes

State Highs State Lows

Community

WunderPhotos

Upload Photos

1,803,093 photos uploaded!

WunderBlogs® & News

Nearby

Air Quality

  Air Quality AQ Index Pollutant
Not available.

Snow Depth

Station Depth Elevation

Earthquake Activity

City Distance Mag. Time & Date
Minimum magnitude displayed is 2.5.

Coastal Water Temperatures

Place Temperature

Nearby Weather Stations